Terminal Aerodrome Forecast
Issued by NWS Houston/Galveston, TX

Home | Current Version | Previous Version | Text Only | Print | Product List | Glossary On
Versions: 1 2 3 4 5 6 7 8 9 10 11 12 13 14 15 16 17
000
FTUS44 KHGX 201505 AAB
TAFCLL
TAF AMD
KCLL 201505Z 2015/2112 14007KT P6SM FEW009
     FM201600 14010KT P6SM SCT050 BKN100
     FM210000 15006KT P6SM SCT060 BKN090
     FM210700 17006KT 6SM BR SCT015 BKN025
     FM210900 18004KT 3SM BR OVC010=

USA.gov is the U.S. government's official web portal to all federal, state and local government web resources and services.